Time;durP1;ratioP1;P1;durP2;ratioP2;P2;SDS_P1;SDS_P2;PMS_P1;PMS_P2;Temp;Humidity;BMP_temperature;BMP_pressure;BME280_temperature;BME280_humidity;BME280_pressure;Samples;Min_cycle;Max_cycle;Signal;HPM_P1;HPM_P2
2021/11/14 00:03:17;;;;;;;115.77;51.93;;;;;;;3.38;97.20;101009.78;5085116;58;1143165;-86
2021/11/14 00:08:24;;;;;;;107.57;50.77;;;;;;;3.35;96.99;101008.62;5094253;58;1141043;-85
2021/11/14 00:13:30;;;;;;;210.60;60.53;;;;;;;3.34;97.34;101017.38;5139363;57;1141082;-86
2021/11/14 00:18:36;;;;;;;126.53;53.60;;;;;;;3.25;96.57;101029.48;5139301;57;1141243;-86
2021/11/14 00:23:43;;;;;;;124.83;53.17;;;;;;;3.08;96.20;101022.75;5139356;57;1141018;-87
2021/11/14 00:28:49;;;;;;;132.17;51.03;;;;;;;2.84;95.66;101021.95;5139485;56;1141127;-85
2021/11/14 00:33:55;;;;;;;122.07;52.43;;;;;;;2.75;96.06;101011.37;5126023;57;1141055;-85
2021/11/14 00:39:01;;;;;;;129.63;53.13;;;;;;;2.76;97.06;101017.45;5139258;56;1141112;-86
2021/11/14 00:44:08;;;;;;;159.53;58.37;;;;;;;2.88;98.09;101018.31;5180686;56;1141048;-86
2021/11/14 00:49:14;;;;;;;148.90;57.97;;;;;;;2.98;98.31;101025.34;5229403;55;1141288;-85
2021/11/14 00:54:20;;;;;;;164.33;63.57;;;;;;;2.98;97.75;101025.34;5208185;56;1140994;-86
2021/11/14 00:59:26;;;;;;;214.57;84.50;;;;;;;3.01;97.63;101023.92;5207974;56;1141001;-87
2021/11/14 01:04:32;;;;;;;167.37;56.20;;;;;;;3.00;97.33;101025.68;5208050;56;1143080;-85
2021/11/14 01:09:39;;;;;;;246.53;57.17;;;;;;;2.92;97.14;101034.25;5208149;56;1140940;-85
2021/11/14 01:14:45;;;;;;;176.73;52.40;;;;;;;2.87;97.75;101040.58;5208219;56;1141022;-87
2021/11/14 01:19:51;;;;;;;123.63;46.03;;;;;;;2.83;98.33;101043.30;5215279;56;1141262;-86
2021/11/14 01:24:56;;;;;;;105.80;42.47;;;;;;;2.85;97.97;101042.39;5211780;55;1141020;-88
2021/11/14 01:30:05;;;;;;;207.20;46.53;;;;;;;2.85;98.13;101055.45;5211326;56;1142935;-87
2021/11/14 01:35:14;;;;;;;181.70;47.70;;;;;;;2.90;98.39;101053.53;5208671;56;1141024;-86
2021/11/14 01:40:24;;;;;;;186.60;45.27;;;;;;;2.79;97.97;101053.91;5208826;56;1141007;-87
2021/11/14 01:45:31;;;;;;;106.13;41.83;;;;;;;2.68;98.18;101055.61;5153430;56;1138910;-87
2021/11/14 01:50:38;;;;;;;111.97;40.50;;;;;;;2.66;98.43;101067.02;5140471;57;1138973;-86
2021/11/14 01:55:46;;;;;;;179.20;46.68;;;;;;;2.68;98.35;101067.81;5140158;57;1141043;-85
2021/11/14 02:00:59;;;;;;;245.53;44.53;;;;;;;2.64;98.36;101068.83;5139984;57;1139234;-86
2021/11/14 02:06:07;;;;;;;114.42;42.08;;;;;;;2.63;98.55;101088.02;5139967;57;1139029;-86
2021/11/14 02:11:16;;;;;;;96.93;41.43;;;;;;;2.55;98.40;101082.22;5139819;57;1139076;-87
2021/11/14 02:16:26;;;;;;;134.67;43.37;;;;;;;2.53;98.58;101108.84;5139703;57;1136925;-86
2021/11/14 02:21:32;;;;;;;130.20;41.53;;;;;;;2.44;98.39;101103.50;5139615;57;1138908;-87
2021/11/14 02:26:38;;;;;;;88.67;41.53;;;;;;;2.36;98.74;101108.97;5139705;57;1139071;-85
2021/11/14 02:31:46;;;;;;;82.97;40.17;;;;;;;2.34;98.89;101118.61;5139707;57;1136954;-86
2021/11/14 02:36:53;;;;;;;142.17;44.03;;;;;;;2.35;98.96;101111.63;5139480;57;1136817;-87
2021/11/14 02:41:59;;;;;;;95.30;40.40;;;;;;;2.31;99.51;101127.84;5146902;56;1139267;-87
2021/11/14 02:47:05;;;;;;;79.67;37.30;;;;;;;2.21;99.38;101132.13;5208693;55;1136837;-87
2021/11/14 02:52:13;;;;;;;85.10;36.97;;;;;;;2.12;99.72;101134.59;5208604;55;1134760;-86
2021/11/14 02:57:18;;;;;;;125.20;39.88;;;;;;;2.10;99.78;101142.92;5208486;56;1134761;-86
2021/11/14 03:02:26;;;;;;;123.18;43.23;;;;;;;2.09;100.00;101140.77;5218730;56;1141009;-85
2021/11/14 03:07:32;;;;;;;96.87;39.53;;;;;;;2.12;100.00;101146.34;5322925;54;1143236;-84
2021/11/14 03:12:38;;;;;;;82.08;37.48;;;;;;;2.18;100.00;101137.44;5381206;55;1140972;-84
2021/11/14 03:17:44;;;;;;;113.35;38.67;;;;;;;2.22;100.00;101142.52;5381278;55;1141008;-84
2021/11/14 03:22:50;;;;;;;136.77;39.70;;;;;;;2.23;100.00;101148.14;5380695;55;1142934;-85
2021/11/14 03:27:58;;;;;;;91.27;34.93;;;;;;;2.16;100.00;101151.83;5381686;55;1143104;-85
2021/11/14 03:33:08;;;;;;;85.37;35.87;;;;;;;2.15;100.00;101156.65;5380853;55;1141050;-85
2021/11/14 03:38:16;;;;;;;88.87;38.07;;;;;;;2.18;100.00;101164.84;5384229;55;1140923;-83
2021/11/14 03:43:22;;;;;;;139.13;43.33;;;;;;;2.19;100.00;101172.62;5344982;55;1140959;-84
2021/11/14 03:48:30;;;;;;;114.23;41.20;;;;;;;2.21;100.00;101173.42;5273030;56;1143105;-85
2021/11/14 03:53:37;;;;;;;92.10;38.40;;;;;;;2.24;100.00;101180.30;5271547;56;1143040;-84
2021/11/14 03:58:43;;;;;;;99.60;40.23;;;;;;;2.26;100.00;101183.27;5271755;56;1141016;-85
2021/11/14 04:03:52;;;;;;;114.90;39.87;;;;;;;2.30;100.00;101191.38;5271768;56;1141045;-84
2021/11/14 04:08:59;;;;;;;117.10;40.20;;;;;;;2.23;100.00;101191.19;5271598;56;1143132;-85
2021/11/14 04:14:04;;;;;;;70.67;32.50;;;;;;;2.19;100.00;101189.58;5271663;56;1143093;-85
2021/11/14 04:19:11;;;;;;;61.10;30.73;;;;;;;2.21;100.00;101196.05;5271684;56;1141032;-85
2021/11/14 04:24:17;;;;;;;92.77;29.60;;;;;;;2.20;100.00;101200.42;5271741;56;1141018;-84
2021/11/14 04:29:23;;;;;;;174.50;37.87;;;;;;;2.09;100.00;101209.05;5271707;56;1141066;-85
2021/11/14 04:34:29;;;;;;;79.57;34.67;;;;;;;2.03;100.00;101211.39;5271958;56;1143396;-84
2021/11/14 04:39:34;;;;;;;92.47;32.83;;;;;;;2.04;100.00;101214.41;5271810;56;1141146;-85
2021/11/14 04:44:42;;;;;;;88.67;36.10;;;;;;;2.09;100.00;101217.73;5348989;54;1141128;-86
2021/11/14 04:49:48;;;;;;;95.17;35.37;;;;;;;2.12;100.00;101220.70;5391143;54;1140981;-85
2021/11/14 04:54:54;;;;;;;83.27;33.60;;;;;;;2.12;100.00;101215.48;5391340;54;1141120;-84
2021/11/14 04:59:59;;;;;;;54.03;28.33;;;;;;;2.03;100.00;101227.05;5391342;54;1141029;-84
2021/11/14 05:05:08;;;;;;;102.33;34.40;;;;;;;1.99;100.00;101216.73;5394911;54;1140999;-84
2021/11/14 05:10:14;;;;;;;98.47;35.23;;;;;;;2.00;100.00;101232.80;5402750;54;1143239;-83
2021/11/14 05:15:19;;;;;;;91.97;34.43;;;;;;;2.04;100.00;101239.19;5391195;54;1141238;-84
2021/11/14 05:20:25;;;;;;;69.23;31.90;;;;;;;2.02;100.00;101244.05;5391019;54;1141117;-83
2021/11/14 05:25:31;;;;;;;59.13;28.63;;;;;;;2.00;100.00;101241.48;5391315;54;1141339;-85
2021/11/14 05:30:37;;;;;;;64.30;29.25;;;;;;;1.97;100.00;101249.88;5391444;54;1141045;-84
2021/11/14 05:35:43;;;;;;;88.43;29.70;;;;;;;1.88;100.00;101251.44;5391787;54;1141016;-85
2021/11/14 05:40:49;;;;;;;73.50;31.20;;;;;;;1.80;100.00;101256.90;5391405;54;1141462;-84
2021/11/14 05:45:55;;;;;;;67.30;31.93;;;;;;;1.84;100.00;101271.98;5284117;55;1141024;-84
2021/11/14 05:51:01;;;;;;;88.00;36.80;;;;;;;1.93;100.00;101279.55;5126047;57;1140984;-85
2021/11/14 05:56:07;;;;;;;87.50;40.07;;;;;;;1.92;100.00;101287.83;5081071;58;1141064;-84
2021/11/14 06:01:19;;;;;;;75.83;34.70;;;;;;;1.91;100.00;101298.30;5125859;57;1141017;-84
2021/11/14 06:06:25;;;;;;;98.37;38.60;;;;;;;1.98;100.00;101303.77;5042994;57;1139030;-85
2021/11/14 06:11:31;;;;;;;80.00;35.23;;;;;;;1.95;100.00;101315.58;5068414;57;1139148;-84
2021/11/14 06:16:37;;;;;;;68.97;35.93;;;;;;;1.89;100.00;101325.73;5043633;58;1139322;-84
2021/11/14 06:21:43;;;;;;;79.10;35.13;;;;;;;1.92;100.00;101333.92;5043615;58;1139503;-85
2021/11/14 06:26:49;;;;;;;108.23;39.57;;;;;;;2.00;100.00;101346.28;5000042;59;1138957;-84
2021/11/14 06:31:54;;;;;;;114.63;40.07;;;;;;;2.08;100.00;101344.32;5043621;57;1141032;-86
2021/11/14 06:37:00;;;;;;;79.13;36.03;;;;;;;2.07;100.00;101358.27;5000049;59;1141041;-86
2021/11/14 06:42:08;;;;;;;91.40;38.77;;;;;;;2.09;100.00;101366.91;5044266;57;1139181;-87
2021/11/14 06:47:16;;;;;;;76.63;32.00;;;;;;;2.16;100.00;101368.42;4969937;58;1139236;-86
2021/11/14 06:52:23;;;;;;;80.20;32.70;;;;;;;2.26;100.00;101383.38;5101116;56;1138874;-86
2021/11/14 06:57:28;;;;;;;74.83;33.47;;;;;;;2.29;100.00;101391.95;5176620;56;1138934;-87
2021/11/14 07:02:34;;;;;;;78.83;37.57;;;;;;;2.35;100.00;101398.75;5189080;56;1138960;-85
2021/11/14 07:07:41;;;;;;;90.03;35.37;;;;;;;2.42;100.00;101402.91;5188984;56;1141228;-85
2021/11/14 07:12:47;;;;;;;113.93;36.73;;;;;;;2.51;100.00;101410.90;5189347;56;1138955;-86
2021/11/14 07:17:53;;;;;;;79.83;33.07;;;;;;;2.50;100.00;101419.19;5189366;56;1140969;-87
2021/11/14 07:22:59;;;;;;;73.00;33.17;;;;;;;2.55;100.00;101426.89;5189423;56;1138927;-86
2021/11/14 07:28:05;;;;;;;101.60;34.00;;;;;;;2.60;100.00;101438.88;5189369;56;1141155;-86
2021/11/14 07:33:11;;;;;;;85.57;36.70;;;;;;;2.66;100.00;101446.55;5124307;56;1138990;-86
2021/11/14 07:38:18;;;;;;;80.90;36.97;;;;;;;2.69;100.00;101456.91;5125072;56;1137062;-87
2021/11/14 07:43:24;;;;;;;75.43;31.77;;;;;;;2.69;100.00;101458.22;5154093;56;1140990;-86
2021/11/14 07:48:29;;;;;;;74.60;33.67;;;;;;;2.72;100.00;101461.19;5203778;56;1141153;-86
2021/11/14 07:53:35;;;;;;;77.85;34.50;;;;;;;2.73;100.00;101465.06;5203714;56;1143073;-86
2021/11/14 07:58:40;;;;;;;70.13;33.60;;;;;;;2.74;100.00;101472.45;5205884;56;1141187;-85
2021/11/14 08:03:47;;;;;;;78.43;32.53;;;;;;;2.75;100.00;101478.08;5206470;55;1141032;-86
2021/11/14 08:08:52;;;;;;;70.00;31.77;;;;;;;2.84;100.00;101488.24;5233975;55;1143128;-87
2021/11/14 08:13:58;;;;;;;73.20;36.23;;;;;;;2.90;100.00;101491.98;5203614;56;1143123;-85
2021/11/14 08:19:04;;;;;;;67.00;32.50;;;;;;;2.95;100.00;101503.58;5203590;56;1141002;-86
2021/11/14 08:24:10;;;;;;;65.33;30.90;;;;;;;2.93;100.00;101504.08;5203665;56;1140985;-86
2021/11/14 08:29:16;;;;;;;48.20;23.90;;;;;;;2.95;100.00;101513.59;5203693;56;1143270;-86
2021/11/14 08:34:22;;;;;;;74.87;31.17;;;;;;;3.00;100.00;101517.38;5203652;56;1143188;-86
2021/11/14 08:39:27;;;;;;;62.73;28.57;;;;;;;2.98;100.00;101516.11;5203446;56;1141042;-86
2021/11/14 08:44:33;;;;;;;67.30;29.57;;;;;;;2.96;100.00;101521.83;5195504;56;1140993;-86
2021/11/14 08:49:41;;;;;;;57.60;26.43;;;;;;;2.96;100.00;101529.67;5183621;55;1141218;-85
2021/11/14 08:54:47;;;;;;;69.70;32.43;;;;;;;2.98;100.00;101530.48;5207980;56;1143068;-85
2021/11/14 08:59:53;;;;;;;76.00;33.63;;;;;;;3.04;100.00;101527.70;5208006;55;1143077;-86
2021/11/14 09:04:58;;;;;;;84.90;34.13;;;;;;;3.09;100.00;101540.16;5208062;56;1141109;-87
2021/11/14 09:10:06;;;;;;;81.97;33.07;;;;;;;3.11;100.00;101538.36;5208392;56;1141051;-86
2021/11/14 09:15:11;;;;;;;83.17;37.80;;;;;;;3.20;100.00;101546.83;5193623;56;1140973;-84
2021/11/14 09:20:17;;;;;;;98.80;40.00;;;;;;;3.29;100.00;101556.55;5167830;55;1143409;-87
2021/11/14 09:25:23;;;;;;;106.87;41.67;;;;;;;3.37;100.00;101560.20;5166421;56;1143269;-87
2021/11/14 09:30:29;;;;;;;103.47;36.93;;;;;;;3.41;100.00;101557.46;5158341;56;1143292;-85
2021/11/14 09:35:35;;;;;;;99.27;37.60;;;;;;;3.44;100.00;101561.30;5203313;56;1143384;-85
2021/11/14 09:40:42;;;;;;;106.63;37.20;;;;;;;3.48;100.00;101560.75;5207890;56;1143060;-85
2021/11/14 09:45:52;;;;;;;103.60;38.37;;;;;;;3.57;100.00;101569.60;5204238;56;1145148;-87
2021/11/14 09:51:00;;;;;;;98.30;39.27;;;;;;;3.65;100.00;101571.53;5204078;56;1145149;-85
2021/11/14 09:56:07;;;;;;;117.77;44.70;;;;;;;3.74;100.00;101574.30;5204161;56;1141274;-86
2021/11/14 10:01:13;;;;;;;108.47;43.68;;;;;;;3.75;100.00;101579.48;5224889;55;1143307;-85
2021/11/14 10:06:27;;;;;;;105.87;39.80;;;;;;;3.80;100.00;101576.27;5205884;56;1143194;-85
2021/11/14 10:11:42;;;;;;;110.50;40.28;;;;;;;3.88;100.00;101578.63;5203767;56;1145355;-86
2021/11/14 10:16:48;;;;;;;121.83;48.77;;;;;;;3.96;100.00;101588.85;5203702;56;1145179;-85
2021/11/14 10:21:57;;;;;;;108.87;43.73;;;;;;;4.01;100.00;101591.70;5203823;56;1145197;-86
2021/11/14 10:27:15;;;;;;;141.80;63.03;;;;;;;4.05;100.00;101596.39;5203843;56;1143337;-85
2021/11/14 10:32:22;;;;;;;136.63;65.93;;;;;;;4.10;100.00;101597.09;5144507;56;1143319;-85
2021/11/14 10:37:34;;;;;;;107.60;42.37;;;;;;;4.14;100.00;101595.61;5134644;56;1143328;-85
2021/11/14 10:42:43;;;;;;;108.53;45.37;;;;;;;4.21;100.00;101598.89;5143185;56;1143144;-85
2021/11/14 10:47:59;;;;;;;122.37;45.57;;;;;;;4.25;100.00;101596.58;5212544;55;1143403;-85
2021/11/14 10:53:09;;;;;;;122.67;49.27;;;;;;;4.30;100.00;101597.70;5203867;56;1141056;-84
2021/11/14 10:58:18;;;;;;;120.37;47.23;;;;;;;4.39;100.00;101600.03;5204152;56;1143101;-85
2021/11/14 11:03:28;;;;;;;99.27;37.63;;;;;;;4.50;100.00;101609.22;5204466;56;1143114;-85
2021/11/14 11:08:32;;;;;;;116.20;46.70;;;;;;;4.58;100.00;101611.58;5204536;56;1141015;-85
2021/11/14 11:13:45;;;;;;;121.03;48.43;;;;;;;4.58;100.00;101617.64;5204286;56;1141086;-85
2021/11/14 11:19:13;;;;;;;124.17;49.63;;;;;;;4.65;100.00;101619.61;5207317;55;1143120;-85
2021/11/14 11:24:25;;;;;;;119.60;47.17;;;;;;;4.77;100.00;101620.92;5228448;55;1145121;-84
2021/11/14 11:29:35;;;;;;;122.13;51.63;;;;;;;4.86;100.00;101616.69;5203846;56;1145204;-85
2021/11/14 11:34:42;;;;;;;148.90;57.50;;;;;;;4.94;100.00;101623.80;5177295;56;1145167;-85
2021/11/14 11:39:48;;;;;;;143.97;60.10;;;;;;;5.00;100.00;101623.58;5221495;55;1143222;-83
2021/11/14 11:44:55;;;;;;;123.30;51.93;;;;;;;5.07;100.00;101623.73;5206718;55;1145346;-85
2021/11/14 11:50:01;;;;;;;129.70;54.43;;;;;;;5.13;100.00;101635.33;5208473;55;1145378;-86
2021/11/14 11:55:26;;;;;;;150.00;58.90;;;;;;;5.17;100.00;101635.62;5208057;55;1145391;-84
2021/11/14 12:00:31;;;;;;;151.97;65.47;;;;;;;5.13;100.00;101637.95;5207990;56;1145284;-86
2021/11/14 12:05:41;;;;;;;138.93;55.67;;;;;;;5.18;100.00;101644.34;5208222;55;1145161;-85
2021/11/14 12:10:59;;;;;;;131.73;52.53;;;;;;;5.26;100.00;101650.99;5208020;55;1145159;-85
2021/11/14 12:16:05;;;;;;;152.73;60.53;;;;;;;5.35;100.00;101650.27;5208067;56;1145210;-85
2021/11/14 12:21:21;;;;;;;126.63;53.70;;;;;;;5.38;100.00;101662.78;5208071;56;1145191;-84
2021/11/14 12:26:31;;;;;;;140.70;57.57;;;;;;;5.41;100.00;101671.86;5207983;56;1143093;-83
2021/11/14 12:31:53;;;;;;;132.93;55.33;;;;;;;5.43;100.00;101671.80;5208132;56;1145381;-85
2021/11/14 12:37:14;;;;;;;129.53;55.70;;;;;;;5.49;100.00;101676.83;5208091;56;1145173;-85
2021/11/14 12:42:24;;;;;;;115.85;52.43;;;;;;;5.59;100.00;101679.03;5207020;55;1145108;-85
2021/11/14 12:47:32;;;;;;;128.73;56.00;;;;;;;5.62;100.00;101682.86;5203369;56;1145372;-84
2021/11/14 12:52:40;;;;;;;133.60;64.73;;;;;;;5.63;100.00;101679.78;5203349;56;1143120;-84
2021/11/14 12:57:55;;;;;;;121.47;60.73;;;;;;;5.67;100.00;101680.03;5203907;56;1143152;-83
2021/11/14 13:03:01;;;;;;;139.10;68.30;;;;;;;5.73;100.00;101685.52;5203714;56;1143205;-83
2021/11/14 13:08:09;;;;;;;144.43;68.40;;;;;;;5.78;100.00;101691.00;5203339;56;1143107;-84
2021/11/14 13:13:29;;;;;;;142.77;67.07;;;;;;;5.80;100.00;101697.50;5203311;56;1143225;-85
2021/11/14 13:18:37;;;;;;;131.77;59.60;;;;;;;5.79;100.00;101704.52;5206454;56;1143119;-83
2021/11/14 13:24:07;;;;;;;114.73;56.13;;;;;;;5.81;100.00;101702.66;5059298;57;1143247;-85
2021/11/14 13:29:17;;;;;;;115.70;59.70;;;;;;;5.82;100.00;101704.37;5205605;56;1143143;-84
2021/11/14 13:34:27;;;;;;;115.03;57.55;;;;;;;5.85;100.00;101703.41;5210801;56;1141368;-85
2021/11/14 13:39:41;;;;;;;110.97;53.73;;;;;;;5.87;100.00;101712.08;5113787;56;21513;-85
2021/11/14 13:44:53;;;;;;;93.80;44.93;;;;;;;5.84;100.00;101713.05;5063019;57;1141047;-85
2021/11/14 13:50:01;;;;;;;;;;;;;;;5.81;100.00;101718.42;5037776;57;1143262;-87
2021/11/14 13:55:10;;;;;;;83.03;41.17;;;;;;;5.78;100.00;101721.19;5085540;58;976604;-86
2021/11/14 14:00:25;;;;;;;82.50;42.00;;;;;;;5.78;100.00;101726.89;5062678;57;1141064;-87
2021/11/14 14:05:32;;;;;;;85.43;41.03;;;;;;;5.74;100.00;101734.48;5042562;58;1140986;-90
2021/11/14 14:10:38;;;;;;;91.40;44.47;;;;;;;5.72;100.00;101733.67;4971009;57;1142525;-90
2021/11/14 14:15:45;;;;;;;107.55;56.20;;;;;;;5.73;100.00;101738.02;4951371;58;1143297;-91
2021/11/14 14:21:04;;;;;;;86.92;44.58;;;;;;;5.75;100.00;101737.05;4993140;58;1145367;-93
2021/11/14 14:26:25;;;;;;;81.03;40.33;;;;;;;5.78;100.00;101746.58;4969404;58;1142572;-90
2021/11/14 14:31:32;;;;;;;84.90;40.60;;;;;;;5.78;100.00;101747.89;4973119;58;1142433;-91
2021/11/14 14:36:39;;;;;;;89.83;41.47;;;;;;;5.79;100.00;101750.92;4977961;58;1143039;-93
2021/11/14 14:41:50;;;;;;;91.87;45.83;;;;;;;5.81;100.00;101754.31;5065500;58;1143271;-89
2021/11/14 14:46:57;;;;;;;100.77;51.07;;;;;;;5.81;100.00;101755.17;5077858;58;1141001;-92
2021/11/14 14:52:03;;;;;;;103.90;48.97;;;;;;;5.77;100.00;101756.22;5047727;57;1143410;-89
2021/11/14 14:57:10;;;;;;;92.20;45.13;;;;;;;5.79;100.00;101762.73;5019075;59;1145124;-89
2021/11/14 15:02:19;;;;;;;96.90;48.13;;;;;;;5.81;100.00;101763.50;5018787;59;1143370;-91
2021/11/14 15:07:25;;;;;;;116.37;54.23;;;;;;;5.80;100.00;101774.48;5022108;57;1143109;-85
2021/11/14 15:12:35;;;;;;;104.43;53.33;;;;;;;5.78;100.00;101783.33;5055638;57;1143170;-85
2021/11/14 15:17:43;;;;;;;127.80;60.50;;;;;;;5.73;100.00;101784.80;5095125;57;1143178;-85
2021/11/14 15:22:55;;;;;;;98.07;48.07;;;;;;;5.72;100.00;101801.47;5203832;56;1145154;-85
2021/11/14 15:28:18;;;;;;;99.30;51.23;;;;;;;5.75;100.00;101811.00;5198927;56;1143285;-85
2021/11/14 15:33:30;;;;;;;107.83;56.33;;;;;;;5.77;100.00;101811.34;5161767;56;1141262;-92
2021/11/14 15:38:37;;;;;;;101.33;52.57;;;;;;;5.79;100.00;101813.92;5178043;56;1143464;-89
2021/11/14 15:43:43;;;;;;;124.27;59.60;;;;;;;5.75;100.00;101810.55;5094528;56;1140989;-88
2021/11/14 15:48:49;;;;;;;130.30;65.13;;;;;;;5.71;100.00;101823.37;5100171;58;1143125;-89
2021/11/14 15:53:55;;;;;;;124.60;60.80;;;;;;;5.73;100.00;101833.82;5100159;58;1143342;-88
2021/11/14 15:59:00;;;;;;;123.87;60.53;;;;;;;5.74;100.00;101836.84;5051419;58;1143075;-88
2021/11/14 16:04:06;;;;;;;142.30;67.43;;;;;;;5.80;100.00;101847.99;5071696;57;1143405;-88
2021/11/14 16:09:12;;;;;;;182.80;85.10;;;;;;;5.78;100.00;101848.50;5050542;57;1141007;-85
2021/11/14 16:14:19;;;;;;;173.93;77.37;;;;;;;5.76;100.00;101846.84;5060885;58;1141379;-85
2021/11/14 16:19:24;;;;;;;150.53;74.67;;;;;;;5.76;100.00;101846.38;5035283;58;1143229;-85
2021/11/14 16:24:30;;;;;;;157.87;72.53;;;;;;;5.79;100.00;101847.59;5035051;58;1143179;-86
2021/11/14 16:29:36;;;;;;;147.10;70.07;;;;;;;5.84;100.00;101849.57;5025545;58;1143164;-91
2021/11/14 16:34:46;;;;;;;154.20;74.90;;;;;;;5.88;100.00;101862.14;5047598;57;1143140;-86
2021/11/14 16:39:52;;;;;;;159.00;77.90;;;;;;;5.89;100.00;101874.39;5049088;57;1141271;-87
2021/11/14 16:44:59;;;;;;;171.77;82.17;;;;;;;5.89;100.00;101874.39;5049148;57;1143523;-87
2021/11/14 16:50:09;;;;;;;234.60;99.30;;;;;;;5.90;100.00;101873.02;5074431;57;1141077;-87
2021/11/14 16:55:14;;;;;;;392.27;167.60;;;;;;;5.91;100.00;101887.02;5053716;57;1145153;-86
2021/11/14 17:00:23;;;;;;;304.83;133.37;;;;;;;5.87;100.00;101889.30;5049888;57;1145048;-92
2021/11/14 17:05:30;;;;;;;266.17;116.77;;;;;;;5.82;100.00;101892.09;5058824;58;1145035;-92
2021/11/14 17:10:36;;;;;;;178.83;81.47;;;;;;;5.78;100.00;101884.40;5091430;57;1146729;-91
2021/11/14 17:15:44;;;;;;;164.07;77.87;;;;;;;5.77;100.00;101891.87;5055007;56;1145126;-92
2021/11/14 17:20:50;;;;;;;210.13;88.27;;;;;;;5.78;100.00;101897.07;5063711;58;1145156;-91
2021/11/14 17:25:56;;;;;;;171.93;74.07;;;;;;;5.76;100.00;101902.83;5040826;57;1145128;-92
2021/11/14 17:31:03;;;;;;;109.33;53.33;;;;;;;5.76;100.00;101905.91;5074202;57;1143083;-92
2021/11/14 17:36:09;;;;;;;103.47;49.93;;;;;;;5.71;100.00;101903.89;5052644;57;1142989;-90
2021/11/14 17:41:15;;;;;;;89.07;42.48;;;;;;;5.70;100.00;101914.84;5012333;57;1145223;-86
2021/11/14 17:46:22;;;;;;;99.47;46.80;;;;;;;5.72;100.00;101913.48;5076917;57;1143085;-85
2021/11/14 17:51:29;;;;;;;97.95;49.40;;;;;;;5.75;100.00;101916.86;5079861;57;1143183;-88
2021/11/14 17:56:35;;;;;;;122.20;54.37;;;;;;;5.78;100.00;101925.09;5166650;55;1143212;-88
2021/11/14 18:01:41;;;;;;;122.10;53.67;;;;;;;5.79;100.00;101928.97;5198838;56;1143124;-87
2021/11/14 18:06:48;;;;;;;110.33;49.03;;;;;;;5.79;100.00;101928.11;5195408;56;1143190;-87
2021/11/14 18:11:55;;;;;;;102.80;47.90;;;;;;;5.80;100.00;101935.08;5198264;56;1145365;-87
2021/11/14 18:17:01;;;;;;;76.33;41.20;;;;;;;5.81;100.00;101936.31;5180394;56;1145231;-86
2021/11/14 18:22:14;;;;;;;79.23;42.53;;;;;;;5.83;100.00;101941.05;5195678;55;1143099;-77
2021/11/14 18:27:20;;;;;;;84.42;44.48;;;;;;;5.85;100.00;101942.31;5092548;57;1143083;-87
2021/11/14 18:32:27;;;;;;;91.17;43.77;;;;;;;5.83;100.00;101950.25;5095704;57;1141200;-87
2021/11/14 18:37:32;;;;;;;80.93;40.20;;;;;;;5.82;100.00;101956.86;5067599;57;1143156;-90
2021/11/14 18:42:39;;;;;;;81.47;38.78;;;;;;;5.84;100.00;101959.84;5070631;57;1143093;-88
2021/11/14 18:47:47;;;;;;;71.33;35.80;;;;;;;5.84;100.00;101965.09;5071326;56;1143191;-88
2021/11/14 18:52:53;;;;;;;64.97;32.50;;;;;;;5.83;100.00;101966.00;5138152;56;1143116;-89
2021/11/14 18:57:58;;;;;;;63.33;31.43;;;;;;;5.79;100.00;101967.04;5124841;56;1141065;-88
2021/11/14 19:03:05;;;;;;;60.80;31.67;;;;;;;5.75;100.00;101974.61;5209239;55;1143269;-89
2021/11/14 19:08:11;;;;;;;64.57;31.50;;;;;;;5.74;100.00;101974.20;5209495;56;1143071;-77
2021/11/14 19:13:18;;;;;;;49.57;26.60;;;;;;;5.78;100.00;101984.16;5174763;56;1143393;-82
2021/11/14 19:18:24;;;;;;;60.00;28.93;;;;;;;5.80;100.00;101986.28;5170315;56;1143228;-77
2021/11/14 19:23:29;;;;;;;46.40;25.43;;;;;;;5.77;100.00;101999.50;5182136;56;1141326;-78
2021/11/14 19:28:38;;;;;;;57.13;28.27;;;;;;;5.76;100.00;101999.95;5160751;56;1143248;-77
2021/11/14 19:33:45;;;;;;;54.93;28.37;;;;;;;5.78;100.00;102013.89;5161938;56;1143139;-81
2021/11/14 19:38:51;;;;;;;54.43;27.83;;;;;;;5.77;100.00;102016.11;5165514;56;1143337;-79
2021/11/14 19:43:58;;;;;;;60.90;31.77;;;;;;;5.75;100.00;102021.00;5122617;57;1141039;-80
2021/11/14 19:49:04;;;;;;;58.33;29.70;;;;;;;5.75;100.00;102019.69;5141825;56;1143460;-77
2021/11/14 19:54:11;;;;;;;58.30;31.53;;;;;;;5.77;100.00;102030.55;5178844;56;1141083;-77
2021/11/14 19:59:21;;;;;;;60.27;30.53;;;;;;;5.81;100.00;102033.45;5162580;56;1141038;-78
2021/11/14 20:04:26;;;;;;;57.70;28.67;;;;;;;5.83;100.00;102045.22;5152271;56;1138965;-77
2021/11/14 20:09:32;;;;;;;69.93;35.47;;;;;;;5.81;100.00;102045.27;5164560;56;1141043;-79
2021/11/14 20:14:42;;;;;;;50.70;27.07;;;;;;;5.80;100.00;102051.45;5157228;56;1141042;-76
2021/11/14 20:19:48;;;;;;;54.60;29.17;;;;;;;5.82;100.00;102054.00;5187507;56;1141060;-82
2021/11/14 20:24:56;;;;;;;61.17;29.97;;;;;;;5.78;100.00;102056.34;5140473;55;1141292;-79
2021/11/14 20:30:01;;;;;;;49.30;25.17;;;;;;;5.77;100.00;102059.42;5099936;57;1141084;-79
2021/11/14 20:35:09;;;;;;;56.80;29.47;;;;;;;5.81;100.00;102058.84;5096848;57;1141036;-78
2021/11/14 20:40:17;;;;;;;63.20;31.33;;;;;;;5.77;100.00;102071.69;5149278;56;1141203;-79
2021/11/14 20:45:25;;;;;;;59.00;28.52;;;;;;;5.76;100.00;102073.91;5150914;56;1140774;-79
2021/11/14 20:50:31;;;;;;;62.43;29.70;;;;;;;5.80;100.00;102072.91;5153039;56;1141214;-79
2021/11/14 20:55:38;;;;;;;56.53;29.00;;;;;;;5.76;100.00;102072.15;5136037;56;1141230;-79
2021/11/14 21:00:44;;;;;;;56.70;28.30;;;;;;;5.74;100.00;102080.98;5098302;56;1140977;-80
2021/11/14 21:05:50;;;;;;;60.73;28.83;;;;;;;5.73;100.00;102087.13;5090282;57;1141066;-78
2021/11/14 21:10:57;;;;;;;63.53;32.93;;;;;;;5.73;100.00;102090.62;5090419;57;1139064;-81
2021/11/14 21:16:02;;;;;;;63.73;33.03;;;;;;;5.72;100.00;102088.89;5090486;57;1138850;-78
2021/11/14 21:21:10;;;;;;;58.70;27.77;;;;;;;5.70;100.00;102095.95;5142891;55;1146553;-78
2021/11/14 21:26:15;;;;;;;54.57;28.67;;;;;;;5.69;100.00;102098.17;5090170;56;1143021;-75
2021/11/14 21:31:21;;;;;;;55.30;28.27;;;;;;;5.70;100.00;102096.41;5216560;55;1143185;-78
2021/11/14 21:41:52;;;;;;;49.42;23.83;;;;;;;5.69;100.00;102092.92;5123876;57;1143178;-76
2021/11/14 21:46:57;;;;;;;54.83;28.33;;;;;;;5.70;100.00;102100.34;5117566;55;1143129;-80
2021/11/14 21:52:05;;;;;;;51.00;26.50;;;;;;;5.69;100.00;102103.88;5120049;57;1143186;-75
2021/11/14 21:57:14;;;;;;;53.87;24.73;;;;;;;5.68;100.00;102094.28;5141676;56;1141065;-80
2021/11/14 22:02:20;;;;;;;47.70;24.23;;;;;;;5.70;100.00;102106.91;5116944;57;1143299;-79
2021/11/14 22:07:26;;;;;;;53.13;26.13;;;;;;;5.69;100.00;102099.48;5079286;57;1143173;-76
2021/11/14 22:12:32;;;;;;;54.23;25.67;;;;;;;5.67;100.00;102106.55;5079345;57;1143175;-82
2021/11/14 22:17:38;;;;;;;41.17;20.73;;;;;;;5.68;100.00;102108.27;5079265;57;1143229;-76
2021/11/14 22:22:44;;;;;;;51.20;26.33;;;;;;;5.71;100.00;102107.32;5153201;56;1143166;-76
2021/11/14 22:27:52;;;;;;;48.63;24.97;;;;;;;5.68;100.00;102118.77;5158629;56;1143267;-81
2021/11/14 22:32:58;;;;;;;51.50;26.50;;;;;;;5.68;100.00;102113.97;5158882;56;1143141;-76
2021/11/14 22:38:10;;;;;;;40.97;20.00;;;;;;;5.71;100.00;102124.38;5158594;56;1143096;-78
2021/11/14 22:43:14;;;;;;;43.57;23.03;;;;;;;5.65;100.00;102129.39;5158664;56;1141063;-78
2021/11/14 22:48:19;;;;;;;54.23;26.23;;;;;;;5.64;100.00;102134.23;5158421;56;1143238;-78